sensor_id;sensor_type;location;lat;lon;timestamp;P1;durP1;ratioP1;P2;durP2;ratioP2
2854;SDS011;1435;49.472;10.940;2022-09-09T00:00:49;1.90;;;1.70;;
2854;SDS011;1435;49.472;10.940;2022-09-09T00:05:59;2.00;;;1.60;;
2854;SDS011;1435;49.472;10.940;2022-09-09T00:11:05;3.47;;;1.57;;
2854;SDS011;1435;49.472;10.940;2022-09-09T00:16:11;6.43;;;2.73;;
2854;SDS011;1435;49.472;10.940;2022-09-09T00:21:19;2.33;;;2.10;;
2854;SDS011;1435;49.472;10.940;2022-09-09T00:26:27;4.00;;;1.73;;
2854;SDS011;1435;49.472;10.940;2022-09-09T00:31:36;2.23;;;2.10;;
2854;SDS011;1435;49.472;10.940;2022-09-09T00:36:38;1.50;;;1.40;;
2854;SDS011;1435;49.472;10.940;2022-09-09T00:41:44;2.43;;;1.77;;
2854;SDS011;1435;49.472;10.940;2022-09-09T00:47:01;3.20;;;1.83;;
2854;SDS011;1435;49.472;10.940;2022-09-09T00:52:17;3.60;;;2.23;;
2854;SDS011;1435;49.472;10.940;2022-09-09T00:57:28;2.83;;;1.83;;
2854;SDS011;1435;49.472;10.940;2022-09-09T01:02:34;2.00;;;1.80;;
2854;SDS011;1435;49.472;10.940;2022-09-09T01:07:44;3.13;;;1.40;;
2854;SDS011;1435;49.472;10.940;2022-09-09T01:12:51;2.80;;;1.47;;
2854;SDS011;1435;49.472;10.940;2022-09-09T01:17:56;2.40;;;1.90;;
2854;SDS011;1435;49.472;10.940;2022-09-09T01:23:05;2.80;;;2.20;;
2854;SDS011;1435;49.472;10.940;2022-09-09T01:28:21;2.37;;;1.97;;
2854;SDS011;1435;49.472;10.940;2022-09-09T01:33:26;1.53;;;1.43;;
2854;SDS011;1435;49.472;10.940;2022-09-09T01:38:28;3.10;;;2.10;;
2854;SDS011;1435;49.472;10.940;2022-09-09T01:43:33;1.50;;;1.40;;
2854;SDS011;1435;49.472;10.940;2022-09-09T01:48:35;2.43;;;2.23;;
2854;SDS011;1435;49.472;10.940;2022-09-09T01:53:37;2.00;;;1.90;;
2854;SDS011;1435;49.472;10.940;2022-09-09T01:58:47;2.27;;;2.00;;
2854;SDS011;1435;49.472;10.940;2022-09-09T02:03:57;2.40;;;2.20;;
2854;SDS011;1435;49.472;10.940;2022-09-09T02:09:04;2.40;;;2.20;;
2854;SDS011;1435;49.472;10.940;2022-09-09T02:14:10;3.00;;;1.87;;
2854;SDS011;1435;49.472;10.940;2022-09-09T02:19:18;2.43;;;1.90;;
2854;SDS011;1435;49.472;10.940;2022-09-09T02:24:26;1.73;;;1.63;;
2854;SDS011;1435;49.472;10.940;2022-09-09T02:29:32;2.83;;;2.17;;
2854;SDS011;1435;49.472;10.940;2022-09-09T02:34:38;3.70;;;2.03;;
2854;SDS011;1435;49.472;10.940;2022-09-09T02:39:45;3.93;;;2.03;;
2854;SDS011;1435;49.472;10.940;2022-09-09T02:44:48;3.00;;;1.90;;
2854;SDS011;1435;49.472;10.940;2022-09-09T02:49:52;4.33;;;2.10;;
2854;SDS011;1435;49.472;10.940;2022-09-09T02:55:04;2.50;;;2.00;;
2854;SDS011;1435;49.472;10.940;2022-09-09T03:00:14;2.30;;;2.10;;
2854;SDS011;1435;49.472;10.940;2022-09-09T03:05:16;2.90;;;2.70;;
2854;SDS011;1435;49.472;10.940;2022-09-09T03:10:18;2.63;;;2.10;;
2854;SDS011;1435;49.472;10.940;2022-09-09T03:15:21;2.10;;;1.87;;
2854;SDS011;1435;49.472;10.940;2022-09-09T03:20:23;3.10;;;2.20;;
2854;SDS011;1435;49.472;10.940;2022-09-09T03:25:26;2.57;;;2.37;;
2854;SDS011;1435;49.472;10.940;2022-09-09T03:30:30;2.80;;;2.60;;
2854;SDS011;1435;49.472;10.940;2022-09-09T03:35:32;4.90;;;2.33;;
2854;SDS011;1435;49.472;10.940;2022-09-09T03:40:33;3.57;;;2.70;;
2854;SDS011;1435;49.472;10.940;2022-09-09T03:45:38;2.33;;;2.17;;
2854;SDS011;1435;49.472;10.940;2022-09-09T03:50:43;3.10;;;2.20;;
2854;SDS011;1435;49.472;10.940;2022-09-09T03:55:46;2.93;;;2.57;;
2854;SDS011;1435;49.472;10.940;2022-09-09T04:00:54;3.10;;;2.80;;
2854;SDS011;1435;49.472;10.940;2022-09-09T04:05:57;3.90;;;2.23;;
2854;SDS011;1435;49.472;10.940;2022-09-09T04:11:00;3.40;;;2.57;;
2854;SDS011;1435;49.472;10.940;2022-09-09T04:16:09;2.30;;;2.20;;
2854;SDS011;1435;49.472;10.940;2022-09-09T04:21:13;2.27;;;2.00;;
2854;SDS011;1435;49.472;10.940;2022-09-09T04:26:15;2.27;;;2.07;;
2854;SDS011;1435;49.472;10.940;2022-09-09T04:31:18;3.60;;;1.90;;
2854;SDS011;1435;49.472;10.940;2022-09-09T04:36:23;2.10;;;2.00;;
2854;SDS011;1435;49.472;10.940;2022-09-09T04:41:25;3.43;;;2.30;;
2854;SDS011;1435;49.472;10.940;2022-09-09T04:46:28;2.57;;;2.37;;
2854;SDS011;1435;49.472;10.940;2022-09-09T04:51:29;3.53;;;2.57;;
2854;SDS011;1435;49.472;10.940;2022-09-09T04:56:31;3.10;;;2.13;;
2854;SDS011;1435;49.472;10.940;2022-09-09T05:01:34;2.70;;;2.20;;
2854;SDS011;1435;49.472;10.940;2022-09-09T05:06:36;2.67;;;1.90;;
2854;SDS011;1435;49.472;10.940;2022-09-09T05:11:38;2.27;;;2.07;;
2854;SDS011;1435;49.472;10.940;2022-09-09T05:16:41;3.93;;;2.67;;
2854;SDS011;1435;49.472;10.940;2022-09-09T05:21:44;4.70;;;2.40;;
2854;SDS011;1435;49.472;10.940;2022-09-09T05:26:46;3.20;;;2.30;;
2854;SDS011;1435;49.472;10.940;2022-09-09T05:31:49;6.07;;;2.80;;
2854;SDS011;1435;49.472;10.940;2022-09-09T05:36:51;2.40;;;2.20;;
2854;SDS011;1435;49.472;10.940;2022-09-09T05:41:53;3.00;;;2.70;;
2854;SDS011;1435;49.472;10.940;2022-09-09T05:46:56;5.07;;;2.53;;
2854;SDS011;1435;49.472;10.940;2022-09-09T05:51:58;4.80;;;2.10;;
2854;SDS011;1435;49.472;10.940;2022-09-09T05:57:00;3.10;;;1.80;;
2854;SDS011;1435;49.472;10.940;2022-09-09T06:02:03;6.93;;;2.47;;
2854;SDS011;1435;49.472;10.940;2022-09-09T06:07:05;3.50;;;2.07;;
2854;SDS011;1435;49.472;10.940;2022-09-09T06:12:07;2.20;;;2.00;;
2854;SDS011;1435;49.472;10.940;2022-09-09T06:17:10;4.67;;;1.97;;
2854;SDS011;1435;49.472;10.940;2022-09-09T06:22:12;3.43;;;2.20;;
2854;SDS011;1435;49.472;10.940;2022-09-09T06:27:13;2.40;;;1.43;;
2854;SDS011;1435;49.472;10.940;2022-09-09T06:32:16;4.47;;;2.00;;
2854;SDS011;1435;49.472;10.940;2022-09-09T06:37:18;2.17;;;1.60;;
2854;SDS011;1435;49.472;10.940;2022-09-09T06:42:20;1.67;;;1.57;;
2854;SDS011;1435;49.472;10.940;2022-09-09T06:47:23;5.43;;;1.97;;
2854;SDS011;1435;49.472;10.940;2022-09-09T06:52:25;2.23;;;1.90;;
2854;SDS011;1435;49.472;10.940;2022-09-09T06:57:27;3.17;;;1.97;;
2854;SDS011;1435;49.472;10.940;2022-09-09T07:02:30;2.53;;;2.10;;
2854;SDS011;1435;49.472;10.940;2022-09-09T07:07:32;6.03;;;2.50;;
2854;SDS011;1435;49.472;10.940;2022-09-09T07:12:34;3.83;;;2.00;;
2854;SDS011;1435;49.472;10.940;2022-09-09T07:17:38;6.07;;;2.27;;
2854;SDS011;1435;49.472;10.940;2022-09-09T07:22:40;4.07;;;2.20;;
2854;SDS011;1435;49.472;10.940;2022-09-09T07:27:42;2.00;;;1.80;;
2854;SDS011;1435;49.472;10.940;2022-09-09T07:32:45;3.00;;;1.80;;
2854;SDS011;1435;49.472;10.940;2022-09-09T07:37:47;2.80;;;1.50;;
2854;SDS011;1435;49.472;10.940;2022-09-09T07:42:49;2.43;;;1.40;;
2854;SDS011;1435;49.472;10.940;2022-09-09T07:47:52;4.03;;;1.57;;
2854;SDS011;1435;49.472;10.940;2022-09-09T07:52:54;4.03;;;1.50;;
2854;SDS011;1435;49.472;10.940;2022-09-09T07:57:55;1.87;;;1.50;;
2854;SDS011;1435;49.472;10.940;2022-09-09T08:02:58;5.33;;;3.50;;
2854;SDS011;1435;49.472;10.940;2022-09-09T08:08:02;4.60;;;1.77;;
2854;SDS011;1435;49.472;10.940;2022-09-09T08:13:04;2.83;;;1.60;;
2854;SDS011;1435;49.472;10.940;2022-09-09T08:18:07;2.13;;;1.60;;
2854;SDS011;1435;49.472;10.940;2022-09-09T08:23:09;2.10;;;1.37;;
2854;SDS011;1435;49.472;10.940;2022-09-09T08:28:10;3.30;;;1.97;;
2854;SDS011;1435;49.472;10.940;2022-09-09T08:33:13;1.37;;;0.90;;
2854;SDS011;1435;49.472;10.940;2022-09-09T08:38:15;3.60;;;1.30;;
2854;SDS011;1435;49.472;10.940;2022-09-09T08:43:18;2.10;;;1.20;;
2854;SDS011;1435;49.472;10.940;2022-09-09T08:48:30;2.93;;;1.10;;
2854;SDS011;1435;49.472;10.940;2022-09-09T08:53:43;2.90;;;0.90;;
2854;SDS011;1435;49.472;10.940;2022-09-09T08:58:48;1.87;;;1.00;;
2854;SDS011;1435;49.472;10.940;2022-09-09T09:03:53;2.93;;;0.90;;
2854;SDS011;1435;49.472;10.940;2022-09-09T09:09:02;1.50;;;1.10;;
2854;SDS011;1435;49.472;10.940;2022-09-09T09:14:09;1.70;;;1.07;;
2854;SDS011;1435;49.472;10.940;2022-09-09T09:19:19;2.27;;;1.20;;
2854;SDS011;1435;49.472;10.940;2022-09-09T09:24:23;2.73;;;1.00;;
2854;SDS011;1435;49.472;10.940;2022-09-09T09:29:32;2.30;;;1.37;;
2854;SDS011;1435;49.472;10.940;2022-09-09T09:34:36;4.90;;;1.20;;
2854;SDS011;1435;49.472;10.940;2022-09-09T09:39:38;1.67;;;1.07;;
2854;SDS011;1435;49.472;10.940;2022-09-09T09:44:40;4.40;;;1.10;;
2854;SDS011;1435;49.472;10.940;2022-09-09T09:49:51;1.27;;;1.00;;
2854;SDS011;1435;49.472;10.940;2022-09-09T09:54:54;2.33;;;1.30;;
2854;SDS011;1435;49.472;10.940;2022-09-09T10:00:03;3.03;;;1.10;;
2854;SDS011;1435;49.472;10.940;2022-09-09T10:05:15;2.60;;;1.57;;
2854;SDS011;1435;49.472;10.940;2022-09-09T10:10:19;3.90;;;0.90;;
2854;SDS011;1435;49.472;10.940;2022-09-09T10:15:31;1.30;;;0.77;;
2854;SDS011;1435;49.472;10.940;2022-09-09T10:20:40;1.33;;;1.07;;
2854;SDS011;1435;49.472;10.940;2022-09-09T10:25:53;1.67;;;1.10;;
2854;SDS011;1435;49.472;10.940;2022-09-09T10:31:06;1.57;;;0.90;;
2854;SDS011;1435;49.472;10.940;2022-09-09T10:36:22;2.00;;;0.77;;
2854;SDS011;1435;49.472;10.940;2022-09-09T10:41:31;2.00;;;0.93;;
2854;SDS011;1435;49.472;10.940;2022-09-09T10:46:46;5.20;;;1.90;;
2854;SDS011;1435;49.472;10.940;2022-09-09T10:52:17;1.10;;;0.83;;
2854;SDS011;1435;49.472;10.940;2022-09-09T10:57:27;2.40;;;0.90;;
2854;SDS011;1435;49.472;10.940;2022-09-09T11:02:34;2.50;;;0.90;;
2854;SDS011;1435;49.472;10.940;2022-09-09T11:07:39;1.47;;;0.87;;
2854;SDS011;1435;49.472;10.940;2022-09-09T11:12:43;1.63;;;0.93;;
2854;SDS011;1435;49.472;10.940;2022-09-09T11:17:49;2.77;;;0.73;;
2854;SDS011;1435;49.472;10.940;2022-09-09T11:22:57;1.63;;;0.70;;
2854;SDS011;1435;49.472;10.940;2022-09-09T11:28:06;1.70;;;1.03;;
2854;SDS011;1435;49.472;10.940;2022-09-09T11:33:34;2.00;;;0.80;;
2854;SDS011;1435;49.472;10.940;2022-09-09T11:38:56;3.03;;;1.10;;
2854;SDS011;1435;49.472;10.940;2022-09-09T11:44:08;2.87;;;0.83;;
2854;SDS011;1435;49.472;10.940;2022-09-09T11:49:25;1.37;;;0.73;;
2854;SDS011;1435;49.472;10.940;2022-09-09T11:54:31;4.30;;;0.97;;
2854;SDS011;1435;49.472;10.940;2022-09-09T11:59:35;1.80;;;0.93;;
2854;SDS011;1435;49.472;10.940;2022-09-09T12:04:37;2.00;;;1.13;;
2854;SDS011;1435;49.472;10.940;2022-09-09T12:09:47;2.23;;;1.20;;
2854;SDS011;1435;49.472;10.940;2022-09-09T12:15:00;3.93;;;1.10;;
2854;SDS011;1435;49.472;10.940;2022-09-09T12:20:18;2.70;;;1.20;;
2854;SDS011;1435;49.472;10.940;2022-09-09T12:25:26;2.33;;;1.10;;
2854;SDS011;1435;49.472;10.940;2022-09-09T12:30:37;2.00;;;1.27;;
2854;SDS011;1435;49.472;10.940;2022-09-09T12:35:49;2.93;;;1.17;;
2854;SDS011;1435;49.472;10.940;2022-09-09T12:40:56;3.13;;;0.80;;
2854;SDS011;1435;49.472;10.940;2022-09-09T12:45:59;2.00;;;1.20;;
2854;SDS011;1435;49.472;10.940;2022-09-09T12:51:05;3.17;;;1.63;;
2854;SDS011;1435;49.472;10.940;2022-09-09T12:56:20;1.93;;;1.10;;
2854;SDS011;1435;49.472;10.940;2022-09-09T13:01:24;1.73;;;0.80;;
2854;SDS011;1435;49.472;10.940;2022-09-09T13:06:28;0.93;;;0.80;;
2854;SDS011;1435;49.472;10.940;2022-09-09T13:11:34;0.80;;;0.60;;
2854;SDS011;1435;49.472;10.940;2022-09-09T13:16:42;0.90;;;0.73;;
2854;SDS011;1435;49.472;10.940;2022-09-09T13:21:44;2.40;;;1.17;;
2854;SDS011;1435;49.472;10.940;2022-09-09T13:26:53;3.30;;;1.00;;
2854;SDS011;1435;49.472;10.940;2022-09-09T13:32:03;1.73;;;1.13;;
2854;SDS011;1435;49.472;10.940;2022-09-09T13:37:16;3.17;;;1.20;;
2854;SDS011;1435;49.472;10.940;2022-09-09T13:42:27;5.27;;;1.00;;
2854;SDS011;1435;49.472;10.940;2022-09-09T13:47:30;4.70;;;1.40;;
2854;SDS011;1435;49.472;10.940;2022-09-09T13:52:34;2.53;;;1.23;;
2854;SDS011;1435;49.472;10.940;2022-09-09T13:57:37;2.00;;;0.80;;
2854;SDS011;1435;49.472;10.940;2022-09-09T14:02:39;3.20;;;0.87;;
2854;SDS011;1435;49.472;10.940;2022-09-09T14:07:41;3.80;;;1.33;;
2854;SDS011;1435;49.472;10.940;2022-09-09T14:12:46;4.53;;;1.40;;
2854;SDS011;1435;49.472;10.940;2022-09-09T14:17:48;4.50;;;1.10;;
2854;SDS011;1435;49.472;10.940;2022-09-09T14:22:50;3.07;;;1.10;;
2854;SDS011;1435;49.472;10.940;2022-09-09T14:27:54;4.33;;;1.33;;
2854;SDS011;1435;49.472;10.940;2022-09-09T14:32:56;3.37;;;1.40;;
2854;SDS011;1435;49.472;10.940;2022-09-09T14:37:58;2.17;;;1.67;;
2854;SDS011;1435;49.472;10.940;2022-09-09T14:43:01;1.50;;;0.90;;
2854;SDS011;1435;49.472;10.940;2022-09-09T14:48:03;4.70;;;1.50;;
2854;SDS011;1435;49.472;10.940;2022-09-09T14:53:05;3.47;;;0.80;;
2854;SDS011;1435;49.472;10.940;2022-09-09T14:58:10;1.77;;;1.47;;
2854;SDS011;1435;49.472;10.940;2022-09-09T15:03:13;1.07;;;0.67;;
2854;SDS011;1435;49.472;10.940;2022-09-09T15:08:15;6.57;;;1.60;;
2854;SDS011;1435;49.472;10.940;2022-09-09T15:13:18;1.77;;;0.83;;
2854;SDS011;1435;49.472;10.940;2022-09-09T15:18:20;1.93;;;0.70;;
2854;SDS011;1435;49.472;10.940;2022-09-09T15:23:21;1.60;;;0.80;;
2854;SDS011;1435;49.472;10.940;2022-09-09T15:28:25;2.30;;;0.53;;
2854;SDS011;1435;49.472;10.940;2022-09-09T15:33:26;1.10;;;0.60;;
2854;SDS011;1435;49.472;10.940;2022-09-09T15:38:30;2.23;;;0.60;;
2854;SDS011;1435;49.472;10.940;2022-09-09T15:43:33;0.77;;;0.43;;
2854;SDS011;1435;49.472;10.940;2022-09-09T15:48:35;2.00;;;0.70;;
2854;SDS011;1435;49.472;10.940;2022-09-09T15:53:38;2.30;;;0.67;;
2854;SDS011;1435;49.472;10.940;2022-09-09T15:58:41;2.80;;;0.60;;
2854;SDS011;1435;49.472;10.940;2022-09-09T16:03:43;0.43;;;0.43;;
2854;SDS011;1435;49.472;10.940;2022-09-09T16:08:47;0.50;;;0.50;;
2854;SDS011;1435;49.472;10.940;2022-09-09T16:13:52;0.50;;;0.40;;
2854;SDS011;1435;49.472;10.940;2022-09-09T16:18:56;0.50;;;0.40;;
2854;SDS011;1435;49.472;10.940;2022-09-09T16:23:59;1.23;;;0.60;;
2854;SDS011;1435;49.472;10.940;2022-09-09T16:29:04;1.60;;;0.93;;
2854;SDS011;1435;49.472;10.940;2022-09-09T16:34:06;1.27;;;0.60;;
2854;SDS011;1435;49.472;10.940;2022-09-09T16:39:09;0.50;;;0.50;;
2854;SDS011;1435;49.472;10.940;2022-09-09T16:44:14;1.37;;;0.57;;
2854;SDS011;1435;49.472;10.940;2022-09-09T16:49:18;0.60;;;0.50;;
2854;SDS011;1435;49.472;10.940;2022-09-09T16:54:20;1.27;;;0.67;;
2854;SDS011;1435;49.472;10.940;2022-09-09T16:59:24;2.27;;;0.87;;
2854;SDS011;1435;49.472;10.940;2022-09-09T17:04:26;0.80;;;0.67;;
2854;SDS011;1435;49.472;10.940;2022-09-09T17:09:30;2.60;;;2.40;;
2854;SDS011;1435;49.472;10.940;2022-09-09T17:14:34;0.93;;;0.60;;
2854;SDS011;1435;49.472;10.940;2022-09-09T17:19:35;0.80;;;0.80;;
2854;SDS011;1435;49.472;10.940;2022-09-09T17:24:37;1.13;;;0.93;;
2854;SDS011;1435;49.472;10.940;2022-09-09T17:29:41;0.60;;;0.43;;
2854;SDS011;1435;49.472;10.940;2022-09-09T17:34:43;1.77;;;0.60;;
2854;SDS011;1435;49.472;10.940;2022-09-09T17:39:46;1.97;;;0.80;;
2854;SDS011;1435;49.472;10.940;2022-09-09T17:44:49;2.77;;;0.60;;
2854;SDS011;1435;49.472;10.940;2022-09-09T17:49:50;1.37;;;0.57;;
2854;SDS011;1435;49.472;10.940;2022-09-09T17:54:52;3.07;;;0.70;;
2854;SDS011;1435;49.472;10.940;2022-09-09T17:59:57;0.83;;;0.80;;
2854;SDS011;1435;49.472;10.940;2022-09-09T18:04:59;3.40;;;0.97;;
2854;SDS011;1435;49.472;10.940;2022-09-09T18:10:02;1.70;;;0.80;;
2854;SDS011;1435;49.472;10.940;2022-09-09T18:15:06;2.93;;;1.40;;
2854;SDS011;1435;49.472;10.940;2022-09-09T18:20:08;1.23;;;0.77;;
2854;SDS011;1435;49.472;10.940;2022-09-09T18:25:11;0.80;;;0.80;;
2854;SDS011;1435;49.472;10.940;2022-09-09T18:30:14;3.77;;;1.23;;
2854;SDS011;1435;49.472;10.940;2022-09-09T18:35:16;1.37;;;0.43;;
2854;SDS011;1435;49.472;10.940;2022-09-09T18:40:18;1.60;;;0.70;;
2854;SDS011;1435;49.472;10.940;2022-09-09T18:45:21;1.80;;;0.80;;
2854;SDS011;1435;49.472;10.940;2022-09-09T18:50:22;1.00;;;0.70;;
2854;SDS011;1435;49.472;10.940;2022-09-09T18:55:24;3.40;;;1.33;;
2854;SDS011;1435;49.472;10.940;2022-09-09T19:00:29;1.47;;;0.70;;
2854;SDS011;1435;49.472;10.940;2022-09-09T19:05:31;2.47;;;0.90;;
2854;SDS011;1435;49.472;10.940;2022-09-09T19:10:34;2.60;;;1.03;;
2854;SDS011;1435;49.472;10.940;2022-09-09T19:15:37;2.73;;;0.80;;
2854;SDS011;1435;49.472;10.940;2022-09-09T19:20:39;1.10;;;1.00;;
2854;SDS011;1435;49.472;10.940;2022-09-09T19:25:41;1.17;;;0.77;;
2854;SDS011;1435;49.472;10.940;2022-09-09T19:30:44;1.30;;;0.60;;
2854;SDS011;1435;49.472;10.940;2022-09-09T19:35:55;2.97;;;1.00;;
2854;SDS011;1435;49.472;10.940;2022-09-09T19:41:01;1.03;;;0.70;;
2854;SDS011;1435;49.472;10.940;2022-09-09T19:46:06;1.50;;;0.63;;
2854;SDS011;1435;49.472;10.940;2022-09-09T19:51:11;1.90;;;1.07;;
2854;SDS011;1435;49.472;10.940;2022-09-09T19:56:14;1.30;;;1.00;;
2854;SDS011;1435;49.472;10.940;2022-09-09T20:01:19;2.93;;;0.87;;
2854;SDS011;1435;49.472;10.940;2022-09-09T20:06:24;1.37;;;1.20;;
2854;SDS011;1435;49.472;10.940;2022-09-09T20:11:27;0.70;;;0.70;;
2854;SDS011;1435;49.472;10.940;2022-09-09T20:16:30;1.37;;;0.80;;
2854;SDS011;1435;49.472;10.940;2022-09-09T20:21:32;2.30;;;0.60;;
2854;SDS011;1435;49.472;10.940;2022-09-09T20:26:39;1.60;;;1.40;;
2854;SDS011;1435;49.472;10.940;2022-09-09T20:31:43;1.90;;;0.80;;
2854;SDS011;1435;49.472;10.940;2022-09-09T20:36:45;1.60;;;0.97;;
2854;SDS011;1435;49.472;10.940;2022-09-09T20:41:47;1.50;;;0.90;;
2854;SDS011;1435;49.472;10.940;2022-09-09T20:46:51;1.10;;;1.00;;
2854;SDS011;1435;49.472;10.940;2022-09-09T20:51:56;1.80;;;0.90;;
2854;SDS011;1435;49.472;10.940;2022-09-09T20:56:57;1.80;;;0.93;;
2854;SDS011;1435;49.472;10.940;2022-09-09T21:02:00;1.50;;;0.80;;
2854;SDS011;1435;49.472;10.940;2022-09-09T21:07:03;1.37;;;0.90;;
2854;SDS011;1435;49.472;10.940;2022-09-09T21:12:06;1.00;;;0.90;;
2854;SDS011;1435;49.472;10.940;2022-09-09T21:17:10;1.90;;;0.73;;
2854;SDS011;1435;49.472;10.940;2022-09-09T21:22:12;5.30;;;1.70;;
2854;SDS011;1435;49.472;10.940;2022-09-09T21:27:14;4.20;;;1.20;;
2854;SDS011;1435;49.472;10.940;2022-09-09T21:32:17;2.00;;;1.00;;
2854;SDS011;1435;49.472;10.940;2022-09-09T21:37:20;1.53;;;1.43;;
2854;SDS011;1435;49.472;10.940;2022-09-09T21:42:22;1.40;;;1.30;;
2854;SDS011;1435;49.472;10.940;2022-09-09T21:47:25;2.93;;;1.40;;
2854;SDS011;1435;49.472;10.940;2022-09-09T21:52:27;1.90;;;0.97;;
2854;SDS011;1435;49.472;10.940;2022-09-09T21:57:30;1.20;;;1.10;;
2854;SDS011;1435;49.472;10.940;2022-09-09T22:02:33;2.57;;;1.30;;
2854;SDS011;1435;49.472;10.940;2022-09-09T22:07:37;1.10;;;0.97;;
2854;SDS011;1435;49.472;10.940;2022-09-09T22:12:39;1.80;;;1.03;;
2854;SDS011;1435;49.472;10.940;2022-09-09T22:17:42;1.93;;;1.00;;
2854;SDS011;1435;49.472;10.940;2022-09-09T22:22:43;1.77;;;1.50;;
2854;SDS011;1435;49.472;10.940;2022-09-09T22:27:45;1.27;;;1.07;;
2854;SDS011;1435;49.472;10.940;2022-09-09T22:32:48;1.07;;;0.93;;
2854;SDS011;1435;49.472;10.940;2022-09-09T22:37:50;1.50;;;0.90;;
2854;SDS011;1435;49.472;10.940;2022-09-09T22:42:52;1.37;;;1.10;;
2854;SDS011;1435;49.472;10.940;2022-09-09T22:47:55;1.27;;;1.00;;
2854;SDS011;1435;49.472;10.940;2022-09-09T22:52:56;1.93;;;1.10;;
2854;SDS011;1435;49.472;10.940;2022-09-09T22:57:58;4.97;;;1.80;;
2854;SDS011;1435;49.472;10.940;2022-09-09T23:03:02;1.27;;;0.90;;
2854;SDS011;1435;49.472;10.940;2022-09-09T23:08:04;1.60;;;1.17;;
2854;SDS011;1435;49.472;10.940;2022-09-09T23:13:06;2.00;;;1.00;;
2854;SDS011;1435;49.472;10.940;2022-09-09T23:18:09;1.37;;;1.00;;
2854;SDS011;1435;49.472;10.940;2022-09-09T23:23:12;1.50;;;1.00;;
2854;SDS011;1435;49.472;10.940;2022-09-09T23:28:14;2.40;;;1.30;;
2854;SDS011;1435;49.472;10.940;2022-09-09T23:33:17;1.23;;;0.87;;
2854;SDS011;1435;49.472;10.940;2022-09-09T23:38:19;1.90;;;0.97;;
2854;SDS011;1435;49.472;10.940;2022-09-09T23:43:21;0.93;;;0.90;;
2854;SDS011;1435;49.472;10.940;2022-09-09T23:48:27;1.37;;;1.10;;
2854;SDS011;1435;49.472;10.940;2022-09-09T23:53:29;1.30;;;1.20;;
2854;SDS011;1435;49.472;10.940;2022-09-09T23:58:31;5.37;;;1.40;;
